Terminal Aerodrome Forecast
Issued by NWS Twin Cities, MN

Home | Current Version | Previous Version | Text Only | Print | Product List | Glossary On
Versions: 1 2 3 4 5 6 7 8 9 10 11 12 13 14 15 16 17 18 19 20 21 22 23 24 25 26 27
457
FTUS43 KMPX 142040 AAA
TAFMSP
TAF AMD
KMSP 142040Z 1421/1524 14012KT 3SM -SN SCT018 OVC021
     FM150100 15009KT 5SM -SN BKN018 OVC023
     FM150300 16007KT P6SM BKN015 OVC023
     FM151000 19006KT 5SM BR OVC012=

USA.gov is the U.S. government's official web portal to all federal, state and local government web resources and services.